Time;durP1;ratioP1;P1;durP2;ratioP2;P2;SDS_P1;SDS_P2;PMS_P1;PMS_P2;Temp;Humidity;BMP_temperature;BMP_pressure;BME280_temperature;BME280_humidity;BME280_pressure;Samples;Min_cycle;Max_cycle;Signal;HPM_P1;HPM_P2
2022/03/16 00:02:19;;;;;;;1.60;0.98;;;5.00;80.50;;;;;;5096519;28;20039;-73
2022/03/16 00:04:47;;;;;;;1.02;0.77;;;5.00;80.50;;;;;;5114735;28;20036;-73
2022/03/16 00:07:13;;;;;;;1.05;0.60;;;5.00;80.40;;;;;;5112671;28;20027;-73
2022/03/16 00:09:39;;;;;;;1.00;0.65;;;5.00;80.40;;;;;;5034533;28;20494;-73
2022/03/16 00:12:05;;;;;;;1.50;0.90;;;5.00;80.50;;;;;;5035087;28;20036;-73
2022/03/16 00:14:31;;;;;;;1.48;0.80;;;5.00;80.60;;;;;;5051349;28;20049;-73
2022/03/16 00:16:56;;;;;;;1.10;0.70;;;4.90;80.60;;;;;;5051129;28;20045;-73
2022/03/16 00:19:22;;;;;;;1.48;0.90;;;4.80;80.70;;;;;;5034319;28;20487;-73
2022/03/16 00:21:48;;;;;;;0.70;0.70;;;4.80;80.70;;;;;;5033350;28;20084;-73
2022/03/16 00:24:16;;;;;;;0.90;0.75;;;4.80;80.80;;;;;;5034493;28;20048;-73
2022/03/16 00:26:42;;;;;;;1.90;0.95;;;4.80;80.80;;;;;;5051494;28;20036;-73
2022/03/16 00:29:08;;;;;;;1.70;0.80;;;4.80;80.80;;;;;;5050828;28;20145;-73
2022/03/16 00:31:34;;;;;;;0.88;0.60;;;4.80;80.80;;;;;;5051167;28;20470;-73
2022/03/16 00:34:01;;;;;;;2.15;1.15;;;4.80;80.70;;;;;;5034781;28;20105;-73
2022/03/16 00:36:26;;;;;;;2.72;1.23;;;4.80;80.70;;;;;;5051327;28;20045;-73
2022/03/16 00:38:52;;;;;;;2.17;1.00;;;4.80;80.80;;;;;;5034194;28;20037;-73
2022/03/16 00:41:18;;;;;;;0.95;0.80;;;4.80;80.80;;;;;;5100198;28;20538;-73
2022/03/16 00:43:44;;;;;;;1.52;0.85;;;4.80;80.80;;;;;;5078320;28;20504;-73
2022/03/16 00:46:10;;;;;;;2.60;1.30;;;4.80;80.80;;;;;;5113581;28;20473;-73
2022/03/16 00:48:37;;;;;;;1.02;0.73;;;4.80;80.80;;;;;;5095259;28;20054;-73
2022/03/16 00:51:03;;;;;;;1.27;0.82;;;4.80;80.90;;;;;;5113296;28;20063;-73
2022/03/16 00:53:30;;;;;;;1.10;0.85;;;4.80;81.00;;;;;;5078085;28;20070;-74
2022/03/16 00:55:56;;;;;;;0.82;0.60;;;4.70;80.90;;;;;;5095192;28;20071;-74
2022/03/16 00:58:24;;;;;;;1.27;0.95;;;4.80;81.00;;;;;;5050905;28;20402;-73
2022/03/16 01:00:50;;;;;;;1.42;0.85;;;4.70;81.00;;;;;;5016958;28;20040;-73
2022/03/16 01:03:16;;;;;;;1.73;0.93;;;4.70;81.00;;;;;;5051217;28;20049;-73
2022/03/16 01:05:42;;;;;;;1.38;0.85;;;4.70;81.10;;;;;;5017461;28;20091;-74
2022/03/16 01:08:08;;;;;;;1.23;0.80;;;4.70;81.10;;;;;;5051129;28;20060;-74
2022/03/16 01:10:34;;;;;;;1.90;0.90;;;4.70;81.20;;;;;;5015297;28;20048;-73
2022/03/16 01:13:00;;;;;;;1.55;0.82;;;4.70;81.20;;;;;;5050339;28;20510;-73
2022/03/16 01:15:26;;;;;;;1.33;0.80;;;4.70;81.20;;;;;;5050416;28;20045;-73
2022/03/16 01:17:52;;;;;;;1.50;0.85;;;4.70;81.20;;;;;;5033608;28;20049;-73
2022/03/16 01:20:18;;;;;;;1.45;0.90;;;4.70;81.20;;;;;;5050739;28;20045;-73
2022/03/16 01:22:44;;;;;;;1.67;1.05;;;4.70;81.20;;;;;;5016927;28;20482;-73
2022/03/16 01:25:11;;;;;;;1.33;0.90;;;4.60;81.10;;;;;;5050148;28;20045;-73
2022/03/16 01:27:36;;;;;;;2.33;0.82;;;4.70;81.20;;;;;;5050114;28;20052;-73
2022/03/16 01:30:04;;;;;;;1.30;0.90;;;4.60;81.30;;;;;;5082350;28;20039;-73
2022/03/16 01:32:30;;;;;;;1.48;0.95;;;4.60;82.00;;;;;;5094218;28;20046;-73
2022/03/16 01:34:55;;;;;;;1.85;1.00;;;4.50;81.30;;;;;;5113181;28;20043;-74
2022/03/16 01:37:21;;;;;;;0.82;0.80;;;4.50;81.40;;;;;;5077526;28;20108;-74
2022/03/16 01:39:47;;;;;;;0.90;0.80;;;4.60;81.50;;;;;;5094481;28;20047;-73
2022/03/16 01:42:14;;;;;;;1.02;0.80;;;4.50;81.50;;;;;;5094612;28;20127;-75
2022/03/16 01:44:48;;;;;;;1.50;0.90;;;4.50;81.50;;;;;;5094402;28;20047;-73
2022/03/16 01:47:16;;;;;;;0.85;0.80;;;4.50;81.60;;;;;;5111623;28;20047;-74
2022/03/16 01:49:42;;;;;;;1.75;1.13;;;4.50;81.60;;;;;;5094326;28;20460;-74
2022/03/16 01:52:10;;;;;;;2.08;1.13;;;4.50;81.60;;;;;;5094559;28;20039;-74
2022/03/16 01:54:38;;;;;;;1.70;0.90;;;4.50;81.60;;;;;;5094816;28;20125;-74
2022/03/16 01:57:04;;;;;;;1.00;0.80;;;4.40;81.60;;;;;;5112777;28;20127;-73
2022/03/16 01:59:30;;;;;;;1.58;1.00;;;4.50;81.70;;;;;;5094150;28;20044;-73
2022/03/16 02:01:57;;;;;;;2.45;1.10;;;4.50;81.70;;;;;;5112758;28;20396;-74
2022/03/16 02:04:23;;;;;;;1.77;1.00;;;4.40;81.90;;;;;;5094019;28;20044;-73
2022/03/16 02:06:49;;;;;;;1.00;0.75;;;4.40;81.90;;;;;;5112328;28;20097;-74
2022/03/16 02:09:15;;;;;;;2.10;1.15;;;4.40;81.90;;;;;;5112433;28;20028;-74
2022/03/16 02:11:40;;;;;;;3.72;1.50;;;4.50;82.00;;;;;;5112445;28;20043;-73
2022/03/16 02:14:06;;;;;;;2.05;1.10;;;4.30;81.90;;;;;;5112359;28;20427;-74
2022/03/16 02:16:34;;;;;;;1.95;1.17;;;4.40;82.00;;;;;;5112237;28;20594;-73
2022/03/16 02:19:00;;;;;;;1.63;1.00;;;4.40;82.00;;;;;;5094098;28;20059;-73
2022/03/16 02:21:28;;;;;;;2.50;1.33;;;4.30;82.00;;;;;;5112595;28;20047;-73
2022/03/16 02:23:54;;;;;;;2.88;1.27;;;4.40;82.20;;;;;;5112502;28;20043;-74
2022/03/16 02:26:25;;;;;;;2.22;1.20;;;4.30;82.20;;;;;;5077020;28;20036;-73
2022/03/16 02:28:52;;;;;;;2.20;1.23;;;4.40;82.30;;;;;;5112060;28;20054;-73
2022/03/16 02:31:18;;;;;;;1.70;1.08;;;4.30;82.20;;;;;;5112079;28;20039;-73
2022/03/16 02:33:44;;;;;;;1.88;1.00;;;4.30;82.20;;;;;;5093729;28;20153;-74
2022/03/16 02:36:10;;;;;;;1.65;1.00;;;4.40;82.30;;;;;;5112138;28;20039;-73
2022/03/16 02:38:37;;;;;;;2.25;1.20;;;4.30;82.20;;;;;;5112169;28;20043;-74
2022/03/16 02:41:03;;;;;;;2.92;1.35;;;4.30;82.20;;;;;;5093816;28;20063;-73
2022/03/16 02:43:29;;;;;;;1.75;1.00;;;4.40;82.30;;;;;;5094319;28;20070;-73
2022/03/16 02:45:55;;;;;;;1.98;0.95;;;4.40;82.20;;;;;;5095824;28;20089;-73
2022/03/16 02:48:21;;;;;;;2.05;1.10;;;4.40;82.20;;;;;;5097136;28;20043;-73
2022/03/16 02:50:47;;;;;;;2.45;1.50;;;4.40;82.20;;;;;;5097438;28;20126;-73
2022/03/16 02:53:14;;;;;;;2.10;1.30;;;4.40;82.30;;;;;;5097395;28;20043;-74
2022/03/16 02:55:40;;;;;;;3.85;1.73;;;4.40;82.20;;;;;;5097356;28;20185;-73
2022/03/16 02:58:05;;;;;;;2.70;1.50;;;4.40;82.20;;;;;;5115270;28;20072;-74
2022/03/16 03:00:31;;;;;;;2.13;1.15;;;4.40;82.20;;;;;;5115553;28;20043;-73
2022/03/16 03:02:57;;;;;;;3.47;1.60;;;4.40;82.30;;;;;;5115411;28;20040;-73
2022/03/16 03:05:23;;;;;;;4.25;1.67;;;4.40;82.30;;;;;;5114960;28;20031;-73
2022/03/16 03:07:48;;;;;;;1.92;1.17;;;4.40;82.30;;;;;;5096815;28;20043;-73
2022/03/16 03:10:14;;;;;;;2.45;1.35;;;4.40;82.30;;;;;;5115063;28;20049;-73
2022/03/16 03:12:40;;;;;;;2.70;1.40;;;4.40;82.30;;;;;;5115041;28;20477;-73
2022/03/16 03:15:10;;;;;;;2.90;1.50;;;4.40;82.30;;;;;;5114933;28;20044;-73
2022/03/16 03:17:36;;;;;;;2.08;1.20;;;4.40;82.40;;;;;;5097868;28;20067;-73
2022/03/16 03:20:02;;;;;;;1.60;1.02;;;4.30;82.40;;;;;;5115636;28;20051;-74
2022/03/16 03:22:28;;;;;;;2.60;1.30;;;4.40;82.70;;;;;;5115603;28;20101;-76
2022/03/16 03:24:55;;;;;;;1.10;0.88;;;4.30;82.70;;;;;;5097623;28;20040;-74
2022/03/16 03:27:21;;;;;;;1.77;1.23;;;4.30;82.70;;;;;;5115820;28;20044;-74
2022/03/16 03:29:47;;;;;;;1.55;1.10;;;4.20;82.60;;;;;;5115909;28;20070;-73
2022/03/16 03:32:13;;;;;;;2.70;1.48;;;4.30;82.80;;;;;;5114797;28;20386;-73
2022/03/16 03:34:39;;;;;;;2.13;1.20;;;4.20;83.50;;;;;;5097641;28;20048;-73
2022/03/16 03:37:05;;;;;;;1.88;1.20;;;4.30;83.50;;;;;;5116108;28;20046;-73
2022/03/16 03:39:32;;;;;;;1.70;0.93;;;4.30;82.90;;;;;;5080381;28;20040;-73
2022/03/16 03:41:58;;;;;;;1.48;1.05;;;4.30;82.90;;;;;;5096450;28;20572;-74
2022/03/16 03:44:24;;;;;;;1.27;1.00;;;4.20;82.80;;;;;;5079560;28;20119;-73
2022/03/16 03:46:50;;;;;;;1.90;1.27;;;4.30;82.90;;;;;;5114894;28;20066;-73
2022/03/16 03:49:15;;;;;;;3.75;1.67;;;4.30;82.90;;;;;;5114945;28;20381;-73
2022/03/16 03:51:41;;;;;;;2.30;1.30;;;4.30;82.90;;;;;;5096012;28;20421;-73
2022/03/16 03:54:07;;;;;;;2.25;1.30;;;4.30;83.00;;;;;;5096247;28;20042;-74
2022/03/16 03:56:33;;;;;;;2.78;1.50;;;4.30;83.00;;;;;;5114422;28;20047;-74
2022/03/16 03:58:58;;;;;;;2.35;1.33;;;4.30;82.90;;;;;;5096043;28;20392;-74
2022/03/16 04:01:24;;;;;;;2.83;1.45;;;4.40;83.00;;;;;;5114367;28;20389;-74
2022/03/16 04:03:50;;;;;;;3.10;1.48;;;4.40;82.90;;;;;;5114508;28;20047;-74
2022/03/16 04:06:16;;;;;;;2.60;1.42;;;4.40;82.90;;;;;;5079016;28;20431;-74
2022/03/16 04:08:43;;;;;;;3.20;1.63;;;4.40;82.90;;;;;;5114321;28;20131;-74
2022/03/16 04:11:09;;;;;;;3.22;1.70;;;4.30;82.90;;;;;;5112510;28;20039;-74
2022/03/16 04:13:35;;;;;;;1.92;1.15;;;4.40;82.90;;;;;;5096154;28;20043;-74
2022/03/16 04:16:01;;;;;;;2.47;1.33;;;4.40;83.00;;;;;;5114172;28;20036;-74
2022/03/16 04:18:27;;;;;;;3.70;1.40;;;4.40;83.00;;;;;;5096235;28;20039;-74
2022/03/16 04:20:53;;;;;;;3.13;1.60;;;4.30;83.00;;;;;;5114098;28;20496;-74
2022/03/16 04:23:19;;;;;;;3.08;1.50;;;4.20;83.00;;;;;;5113748;28;20039;-74
2022/03/16 04:25:45;;;;;;;3.00;1.70;;;4.30;83.10;;;;;;5113975;28;20111;-74
2022/03/16 04:28:11;;;;;;;3.65;1.70;;;4.30;83.20;;;;;;5113825;28;20119;-74
2022/03/16 04:30:37;;;;;;;2.30;1.40;;;4.30;83.30;;;;;;5095716;28;20490;-74
2022/03/16 04:33:03;;;;;;;2.58;1.33;;;4.30;83.30;;;;;;5113763;28;20040;-74
2022/03/16 04:35:29;;;;;;;2.15;1.23;;;4.30;83.30;;;;;;5096012;28;20043;-74
2022/03/16 04:37:55;;;;;;;1.90;1.35;;;4.20;83.30;;;;;;5096169;28;20096;-74
2022/03/16 04:40:21;;;;;;;3.22;1.40;;;4.20;83.40;;;;;;5114260;28;20039;-74
2022/03/16 04:42:46;;;;;;;2.33;1.52;;;4.20;83.40;;;;;;5114072;28;20071;-73
2022/03/16 04:45:13;;;;;;;2.75;1.70;;;4.10;83.40;;;;;;5114458;28;20028;-73
2022/03/16 04:47:38;;;;;;;2.42;1.50;;;4.20;83.50;;;;;;5114258;28;20043;-74
2022/03/16 04:50:05;;;;;;;2.72;1.40;;;4.10;83.60;;;;;;5096048;28;20035;-73
2022/03/16 04:52:32;;;;;;;2.13;1.23;;;4.10;83.60;;;;;;5095350;28;20047;-73
2022/03/16 04:54:58;;;;;;;2.97;1.30;;;4.00;83.60;;;;;;5113516;28;20558;-73
2022/03/16 04:57:23;;;;;;;2.22;1.30;;;4.00;83.60;;;;;;5095276;28;20047;-74
2022/03/16 04:59:49;;;;;;;2.33;1.10;;;4.00;83.70;;;;;;5078253;28;20477;-73
2022/03/16 05:02:15;;;;;;;3.67;1.90;;;4.00;83.70;;;;;;5113425;28;20050;-74
2022/03/16 05:04:40;;;;;;;2.72;1.42;;;4.00;83.70;;;;;;5113495;28;20066;-74
2022/03/16 05:07:06;;;;;;;3.05;1.75;;;4.00;83.80;;;;;;5095496;28;20039;-74
2022/03/16 05:09:32;;;;;;;2.63;1.55;;;4.00;83.80;;;;;;5113198;28;20078;-74
2022/03/16 05:11:58;;;;;;;2.78;1.30;;;4.00;83.80;;;;;;5113637;28;20552;-74
2022/03/16 05:14:23;;;;;;;2.78;1.45;;;3.90;84.40;;;;;;5077989;28;20032;-74
2022/03/16 05:16:50;;;;;;;3.60;1.77;;;4.00;83.90;;;;;;5095536;28;20047;-74
2022/03/16 05:19:15;;;;;;;1.65;1.10;;;3.90;84.40;;;;;;5095218;28;20118;-74
2022/03/16 05:21:41;;;;;;;2.20;1.20;;;3.90;83.80;;;;;;5095325;28;20497;-74
2022/03/16 05:24:07;;;;;;;2.47;1.38;;;3.90;83.90;;;;;;5094990;28;20035;-74
2022/03/16 05:26:33;;;;;;;1.42;0.98;;;3.90;83.90;;;;;;5112972;28;20032;-74
2022/03/16 05:28:58;;;;;;;2.63;1.35;;;3.90;83.90;;;;;;5095150;28;20036;-74
2022/03/16 05:31:24;;;;;;;2.38;1.17;;;3.90;83.90;;;;;;5094754;28;20091;-74
2022/03/16 05:33:50;;;;;;;1.45;1.10;;;3.90;83.90;;;;;;5094864;28;20036;-74
2022/03/16 05:36:16;;;;;;;1.85;1.00;;;3.90;83.90;;;;;;5094721;28;20047;-74
2022/03/16 05:38:42;;;;;;;2.58;1.50;;;3.80;83.90;;;;;;5112933;28;20093;-74
2022/03/16 05:41:08;;;;;;;2.88;1.65;;;3.90;84.10;;;;;;5094861;28;20435;-74
2022/03/16 05:43:33;;;;;;;2.88;1.25;;;3.90;84.10;;;;;;5113129;28;20047;-74
2022/03/16 05:46:01;;;;;;;1.80;1.13;;;3.80;84.00;;;;;;5113307;28;20039;-74
2022/03/16 05:48:27;;;;;;;3.75;1.10;;;3.80;84.00;;;;;;5112742;28;20035;-74
2022/03/16 05:50:52;;;;;;;2.13;1.30;;;3.80;84.10;;;;;;5113473;28;20088;-74
2022/03/16 05:53:18;;;;;;;2.33;1.15;;;3.80;84.10;;;;;;5077886;28;20069;-74
2022/03/16 05:55:44;;;;;;;2.25;1.40;;;3.80;84.10;;;;;;5113008;28;20047;-74
2022/03/16 05:58:10;;;;;;;3.38;1.30;;;3.80;84.20;;;;;;5112724;28;20040;-74
2022/03/16 06:00:37;;;;;;;3.40;1.80;;;3.70;84.20;;;;;;5113176;28;20071;-74
2022/03/16 06:03:03;;;;;;;2.05;1.30;;;3.70;84.20;;;;;;5077697;28;20389;-74
2022/03/16 06:05:30;;;;;;;2.85;1.45;;;3.80;84.30;;;;;;5094398;28;20035;-74
2022/03/16 06:07:56;;;;;;;2.00;1.15;;;3.70;84.20;;;;;;5094481;28;20067;-75
2022/03/16 06:10:22;;;;;;;3.38;1.60;;;3.70;84.20;;;;;;5077500;28;20070;-74
2022/03/16 06:12:53;;;;;;;2.25;1.30;;;3.70;84.30;;;;;;5112452;28;20084;-74
2022/03/16 06:15:19;;;;;;;1.42;0.90;;;3.70;84.30;;;;;;5094238;28;20445;-74
2022/03/16 06:17:44;;;;;;;1.90;1.17;;;3.70;84.30;;;;;;5077254;28;20157;-74
2022/03/16 06:20:10;;;;;;;1.67;1.05;;;3.70;84.30;;;;;;5113402;28;20043;-74
2022/03/16 06:22:36;;;;;;;3.45;1.83;;;3.70;84.30;;;;;;5097614;28;20084;-74
2022/03/16 06:25:02;;;;;;;1.80;1.20;;;3.70;84.30;;;;;;5097559;28;20477;-74
2022/03/16 06:27:28;;;;;;;3.03;1.48;;;3.80;84.30;;;;;;5116055;28;20044;-73
2022/03/16 06:29:54;;;;;;;2.60;1.40;;;3.80;84.30;;;;;;5115901;28;20040;-72
2022/03/16 06:32:20;;;;;;;2.28;1.38;;;3.80;84.30;;;;;;5097511;28;20049;-73
2022/03/16 06:34:46;;;;;;;3.97;1.77;;;3.80;84.20;;;;;;5116033;28;20382;-72
2022/03/16 06:37:13;;;;;;;4.35;1.60;;;3.80;84.20;;;;;;5115898;28;20039;-72
2022/03/16 06:39:39;;;;;;;3.30;1.50;;;3.90;84.20;;;;;;5097857;28;20069;-73
2022/03/16 06:42:05;;;;;;;2.47;1.52;;;3.90;84.10;;;;;;5115978;28;20054;-73
2022/03/16 06:44:31;;;;;;;2.28;1.50;;;3.90;84.10;;;;;;5097519;28;20093;-73
2022/03/16 06:46:57;;;;;;;3.50;1.80;;;4.00;84.10;;;;;;5115692;28;20036;-72
2022/03/16 06:49:23;;;;;;;2.75;1.42;;;4.10;84.00;;;;;;5115663;28;20389;-73
2022/03/16 06:51:48;;;;;;;2.00;1.13;;;4.10;84.00;;;;;;5115489;28;20047;-73
2022/03/16 06:54:14;;;;;;;4.38;1.88;;;4.10;83.90;;;;;;5097829;28;20139;-73
2022/03/16 06:56:41;;;;;;;4.40;2.00;;;4.20;83.80;;;;;;5115279;28;20035;-72
2022/03/16 06:59:06;;;;;;;2.78;1.50;;;4.30;83.90;;;;;;5115384;28;20074;-73
2022/03/16 07:01:32;;;;;;;3.35;1.40;;;4.30;83.70;;;;;;5115227;28;20063;-72
2022/03/16 07:03:58;;;;;;;2.63;1.58;;;4.40;83.70;;;;;;5115317;28;20047;-71
2022/03/16 07:06:24;;;;;;;3.20;1.75;;;4.40;83.60;;;;;;5096967;28;20549;-72
2022/03/16 07:08:50;;;;;;;3.78;1.92;;;4.50;83.50;;;;;;5115117;28;20127;-73
2022/03/16 07:11:16;;;;;;;4.78;2.50;;;4.50;83.40;;;;;;5115202;28;20036;-73
2022/03/16 07:14:30;;;;;;;3.60;2.00;;;4.70;83.40;;;;;;5115033;28;20059;-73
2022/03/16 07:16:29;;;;;;;3.22;1.92;;;4.70;83.30;;;;;;5114567;28;20040;-73
2022/03/16 07:18:55;;;;;;;3.63;1.83;;;4.80;83.20;;;;;;5096604;28;20082;-73
2022/03/16 07:21:21;;;;;;;3.20;1.77;;;4.80;83.20;;;;;;5114794;28;20047;-73
2022/03/16 07:23:47;;;;;;;3.85;1.80;;;4.90;83.20;;;;;;5115210;28;20047;-73
2022/03/16 07:26:12;;;;;;;3.63;2.00;;;5.00;83.10;;;;;;5096757;28;20043;-73
2022/03/16 07:28:38;;;;;;;3.65;2.22;;;5.10;83.00;;;;;;5097140;28;20477;-73
2022/03/16 07:31:04;;;;;;;4.35;1.90;;;5.20;82.90;;;;;;5096171;28;20040;-73
2022/03/16 07:33:30;;;;;;;2.70;1.60;;;5.30;82.70;;;;;;5115235;28;20400;-73
2022/03/16 07:35:56;;;;;;;3.63;1.88;;;5.40;82.60;;;;;;5115266;28;20100;-73
2022/03/16 07:38:22;;;;;;;4.18;2.10;;;5.50;82.50;;;;;;5096590;28;20039;-72
2022/03/16 07:40:47;;;;;;;4.25;2.30;;;5.60;82.50;;;;;;5096709;28;20122;-73
2022/03/16 07:43:14;;;;;;;3.40;2.15;;;5.70;82.40;;;;;;5114913;28;20085;-72
2022/03/16 07:45:40;;;;;;;2.90;1.77;;;5.80;82.20;;;;;;5115058;28;20047;-73
2022/03/16 07:48:07;;;;;;;5.18;2.13;;;6.00;82.20;;;;;;5115117;28;20062;-74
2022/03/16 07:50:33;;;;;;;3.78;2.08;;;6.10;82.00;;;;;;5114634;28;20456;-74
2022/03/16 07:52:59;;;;;;;4.47;2.30;;;6.10;81.80;;;;;;5114885;28;20063;-74
2022/03/16 07:55:26;;;;;;;4.45;1.85;;;6.30;81.70;;;;;;5096287;28;20067;-74
2022/03/16 07:57:52;;;;;;;4.20;2.22;;;6.40;81.50;;;;;;5096133;28;20150;-74
2022/03/16 08:00:19;;;;;;;3.75;2.10;;;6.60;81.50;;;;;;5096646;28;20043;-73
2022/03/16 08:02:44;;;;;;;4.05;2.25;;;6.70;81.30;;;;;;5079006;28;21271;-74
2022/03/16 08:05:11;;;;;;;3.58;2.08;;;6.80;81.80;;;;;;5094320;28;20044;-75
2022/03/16 08:07:37;;;;;;;3.75;1.73;;;6.90;81.10;;;;;;5079313;28;20123;-74
2022/03/16 08:10:04;;;;;;;2.72;1.67;;;7.10;80.90;;;;;;5096227;28;20122;-74
2022/03/16 08:12:30;;;;;;;3.35;1.70;;;7.30;81.00;;;;;;5079175;28;20039;-74
2022/03/16 08:14:56;;;;;;;3.35;1.50;;;7.40;80.80;;;;;;5079391;28;20074;-74
2022/03/16 08:17:22;;;;;;;3.35;1.70;;;7.50;80.60;;;;;;5096559;28;20482;-74
2022/03/16 08:19:48;;;;;;;1.88;1.33;;;7.70;80.50;;;;;;5114263;28;20189;-74
2022/03/16 08:22:25;;;;;;;2.83;1.55;;;7.90;80.40;;;;;;5062641;28;20481;-73
2022/03/16 08:24:51;;;;;;;3.72;2.33;;;8.00;80.20;;;;;;5095235;28;20036;-74
2022/03/16 08:27:17;;;;;;;3.03;1.70;;;8.20;80.00;;;;;;5096298;28;20042;-74
2022/03/16 08:29:43;;;;;;;4.72;2.65;;;8.40;79.90;;;;;;5116118;28;20032;-74
2022/03/16 08:32:09;;;;;;;3.53;1.90;;;8.50;80.30;;;;;;5064515;28;20032;-74
2022/03/16 08:34:35;;;;;;;3.17;1.88;;;8.60;79.50;;;;;;5116363;28;20065;-73
2022/03/16 08:37:01;;;;;;;4.22;2.05;;;8.70;79.30;;;;;;5115421;28;20063;-73
2022/03/16 08:39:27;;;;;;;3.25;1.95;;;8.90;79.10;;;;;;5096463;28;20374;-73
2022/03/16 08:41:53;;;;;;;4.30;2.00;;;9.00;78.90;;;;;;5115442;28;20036;-73
2022/03/16 08:44:19;;;;;;;4.07;1.80;;;9.10;78.90;;;;;;5114896;28;20039;-72
2022/03/16 08:46:45;;;;;;;3.33;1.77;;;9.10;78.80;;;;;;5096890;28;20397;-73
2022/03/16 08:49:10;;;;;;;2.53;1.67;;;9.20;78.90;;;;;;5097108;28;20044;-73
2022/03/16 08:51:36;;;;;;;3.55;1.70;;;9.20;78.90;;;;;;5115710;28;20046;-73
2022/03/16 08:54:02;;;;;;;3.22;1.75;;;9.20;78.80;;;;;;5079350;28;20504;-74
2022/03/16 08:56:27;;;;;;;3.42;1.80;;;9.30;78.80;;;;;;5114199;28;20044;-74
2022/03/16 08:58:53;;;;;;;3.38;1.90;;;9.40;78.70;;;;;;5113595;28;20035;-74
2022/03/16 09:01:19;;;;;;;3.63;2.05;;;9.50;78.70;;;;;;5095380;28;20046;-73
2022/03/16 09:03:44;;;;;;;3.67;1.90;;;9.60;78.70;;;;;;5113306;28;20035;-73
2022/03/16 09:06:10;;;;;;;2.67;1.75;;;9.60;78.60;;;;;;5113552;28;20073;-73
2022/03/16 09:08:36;;;;;;;2.78;1.67;;;9.70;78.50;;;;;;5094878;28;20541;-73
2022/03/16 09:11:02;;;;;;;2.92;1.80;;;9.80;78.40;;;;;;5095341;28;20489;-73
2022/03/16 09:13:27;;;;;;;3.38;2.03;;;9.90;78.10;;;;;;5113272;28;20484;-74
2022/03/16 09:15:53;;;;;;;4.93;2.20;;;9.90;77.90;;;;;;5078157;28;20043;-74
2022/03/16 09:18:19;;;;;;;3.67;2.15;;;10.00;77.90;;;;;;5078044;28;20044;-74
2022/03/16 09:20:46;;;;;;;3.22;1.98;;;10.10;77.80;;;;;;5095185;28;20156;-73
2022/03/16 09:23:12;;;;;;;3.25;1.48;;;10.00;78.30;;;;;;5113619;28;20035;-74
2022/03/16 09:25:40;;;;;;;3.08;1.75;;;10.10;77.80;;;;;;5113839;28;20039;-73
2022/03/16 09:28:08;;;;;;;2.42;1.60;;;10.20;77.90;;;;;;5095121;28;20127;-74
2022/03/16 09:30:34;;;;;;;3.17;1.67;;;10.20;77.80;;;;;;5112921;28;20030;-74
2022/03/16 09:33:00;;;;;;;2.78;1.60;;;10.30;77.70;;;;;;5112996;28;20056;-73
2022/03/16 09:35:27;;;;;;;2.97;1.77;;;10.40;77.60;;;;;;5094578;28;20051;-73
2022/03/16 09:37:54;;;;;;;3.30;2.00;;;10.50;78.10;;;;;;5113112;28;20050;-73
2022/03/16 09:40:20;;;;;;;3.42;2.03;;;10.50;77.30;;;;;;5112954;28;20044;-74
2022/03/16 09:42:48;;;;;;;2.85;1.70;;;10.60;77.20;;;;;;5095255;28;20052;-75
2022/03/16 09:45:19;;;;;;;2.38;1.50;;;10.60;77.10;;;;;;5061468;28;20556;-74
2022/03/16 09:47:46;;;;;;;2.90;1.60;;;10.70;77.10;;;;;;5094859;28;20481;-74
2022/03/16 09:50:14;;;;;;;3.28;2.13;;;10.70;77.00;;;;;;5095424;28;20040;-74
2022/03/16 09:52:40;;;;;;;2.65;1.60;;;10.80;76.80;;;;;;5095274;28;20036;-73
2022/03/16 09:55:07;;;;;;;3.30;1.80;;;10.80;76.80;;;;;;5112925;28;20039;-73
2022/03/16 09:57:33;;;;;;;3.30;2.03;;;10.90;76.90;;;;;;5094713;28;20053;-73
2022/03/16 10:00:01;;;;;;;2.67;1.60;;;10.90;76.80;;;;;;5094156;28;20089;-73
2022/03/16 10:02:27;;;;;;;3.22;1.65;;;10.90;76.70;;;;;;5095174;28;20035;-74
2022/03/16 10:04:54;;;;;;;2.88;1.70;;;11.00;76.70;;;;;;5096314;28;20042;-73
2022/03/16 10:07:28;;;;;;;2.95;1.60;;;11.10;76.60;;;;;;5094742;28;20095;-75
2022/03/16 10:15:18;;;;;;;2.72;1.80;;;11.30;76.20;;;;;;5112401;28;20039;-72
2022/03/16 10:17:48;;;;;;;2.75;1.83;;;11.40;76.20;;;;;;5111119;28;20520;-74
2022/03/16 10:20:26;;;;;;;3.00;1.73;;;11.50;76.10;;;;;;5112359;28;20036;-73
2022/03/16 10:23:13;;;;;;;3.35;1.80;;;11.50;75.90;;;;;;5093988;28;20290;-74
2022/03/16 10:25:46;;;;;;;4.03;1.83;;;11.60;75.80;;;;;;5112289;28;20505;-73
2022/03/16 10:28:17;;;;;;;3.20;1.70;;;11.70;75.60;;;;;;5112562;28;20119;-73
2022/03/16 10:31:00;;;;;;;3.38;1.50;;;11.80;75.50;;;;;;5110825;28;20027;-73
2022/03/16 10:33:32;;;;;;;2.53;1.65;;;11.90;75.30;;;;;;5111033;28;20063;-74
2022/03/16 10:36:08;;;;;;;2.80;1.77;;;12.00;75.10;;;;;;5110521;28;20042;-74
2022/03/16 10:38:39;;;;;;;2.67;1.40;;;12.10;74.90;;;;;;5093699;28;20039;-73
2022/03/16 10:46:46;;;;;;;3.10;1.77;;;12.40;74.20;;;;;;5095912;28;20154;-74
2022/03/16 10:49:16;;;;;;;2.90;1.88;;;12.50;73.80;;;;;;5112031;28;20040;-75
2022/03/16 10:51:43;;;;;;;3.13;1.92;;;12.70;73.70;;;;;;5112569;28;20093;-74
2022/03/16 10:54:08;;;;;;;2.40;1.60;;;12.70;73.50;;;;;;5112025;28;20046;-74
2022/03/16 10:56:38;;;;;;;2.55;1.55;;;12.90;73.30;;;;;;5094206;28;20047;-74
2022/03/16 10:59:04;;;;;;;2.40;1.60;;;12.90;73.00;;;;;;5112083;28;20101;-74
2022/03/16 11:01:33;;;;;;;2.78;1.55;;;13.00;72.90;;;;;;5112911;28;20428;-74
2022/03/16 11:04:01;;;;;;;1.92;1.20;;;13.00;72.80;;;;;;5094673;28;20457;-74
2022/03/16 11:06:27;;;;;;;2.00;1.17;;;13.10;72.70;;;;;;5096021;28;20393;-74
2022/03/16 11:08:54;;;;;;;1.75;1.40;;;13.20;72.40;;;;;;5097332;28;20046;-74
2022/03/16 11:13:57;;;;;;;2.17;1.20;;;13.40;72.10;;;;;;5115689;28;20035;-74
2022/03/16 11:16:24;;;;;;;1.58;1.30;;;13.50;72.00;;;;;;5115538;28;20066;-74
2022/03/16 11:18:51;;;;;;;1.83;1.30;;;13.50;71.80;;;;;;5115670;28;20031;-74
2022/03/16 11:21:25;;;;;;;1.73;1.17;;;13.50;71.70;;;;;;5115256;28;20047;-73
2022/03/16 11:27:09;;;;;;;1.45;1.00;;;13.70;71.50;;;;;;5114666;28;20384;-74
2022/03/16 11:29:52;;;;;;;1.77;1.20;;;13.80;71.30;;;;;;5087051;28;20485;-74
2022/03/16 11:32:19;;;;;;;1.85;1.30;;;13.90;71.10;;;;;;5113710;28;20125;-73
2022/03/16 11:35:02;;;;;;;1.48;1.23;;;14.00;70.90;;;;;;5115020;28;20043;-72
2022/03/16 11:37:44;;;;;;;1.73;1.17;;;14.10;70.60;;;;;;5114026;28;20050;-73
2022/03/16 11:40:14;;;;;;;1.67;1.10;;;14.30;70.40;;;;;;5096153;28;20074;-73
2022/03/16 11:43:08;;;;;;;1.88;1.25;;;14.50;70.10;;;;;;5114747;28;20031;-72
2022/03/16 11:45:43;;;;;;;2.33;1.33;;;14.60;69.80;;;;;;5083244;28;20050;-73
2022/03/16 11:48:37;;;;;;;1.50;1.00;;;14.70;69.60;;;;;;5113403;28;20039;-71
2022/03/16 11:51:15;;;;;;;1.17;0.95;;;14.60;69.30;;;;;;5096518;28;20032;-74
2022/03/16 11:54:03;;;;;;;1.23;0.90;;;14.70;69.50;;;;;;5095228;28;20085;-73
2022/03/16 11:56:42;;;;;;;1.02;0.82;;;14.70;69.50;;;;;;5099135;28;20105;-73
2022/03/16 11:59:28;;;;;;;2.72;1.10;;;14.70;69.40;;;;;;5094797;28;20059;-71
2022/03/16 12:02:06;;;;;;;1.33;0.98;;;14.80;69.20;;;;;;5112983;28;20040;-73
2022/03/16 12:04:35;;;;;;;1.40;1.00;;;14.90;68.80;;;;;;5114410;28;20044;-72
2022/03/16 12:07:08;;;;;;;1.88;1.10;;;15.00;68.70;;;;;;5114313;28;20047;-71
2022/03/16 12:09:56;;;;;;;2.17;1.30;;;15.00;68.50;;;;;;5096326;28;20481;-72
2022/03/16 12:12:54;;;;;;;1.75;1.40;;;14.90;68.60;;;;;;5112825;28;20035;-72
2022/03/16 12:15:37;;;;;;;1.73;1.30;;;14.70;68.70;;;;;;5114251;28;20055;-71
2022/03/16 12:18:24;;;;;;;1.73;1.30;;;14.70;69.00;;;;;;5113008;28;20039;-72
2022/03/16 12:20:56;;;;;;;1.98;1.10;;;14.80;69.00;;;;;;5096362;28;20382;-72
2022/03/16 12:23:55;;;;;;;2.03;1.40;;;14.90;68.90;;;;;;5112246;28;20046;-73
2022/03/16 12:26:24;;;;;;;1.65;1.30;;;14.90;68.60;;;;;;5095536;28;20082;-73
2022/03/16 12:28:59;;;;;;;1.73;1.10;;;15.00;68.50;;;;;;5114024;28;20504;-73
2022/03/16 12:31:24;;;;;;;2.17;1.13;;;15.00;68.40;;;;;;5114299;28;20397;-73
2022/03/16 12:33:52;;;;;;;0.90;0.80;;;15.10;68.30;;;;;;5113940;28;20035;-73
2022/03/16 12:36:22;;;;;;;1.80;1.20;;;15.10;68.20;;;;;;5113816;28;20043;-73
2022/03/16 12:38:51;;;;;;;1.40;1.15;;;15.20;68.00;;;;;;5113685;28;20047;-72
2022/03/16 12:44:07;;;;;;;1.05;0.95;;;15.40;67.70;;;;;;5113772;28;20097;-72
2022/03/16 12:46:48;;;;;;;1.90;1.30;;;15.50;67.60;;;;;;5113457;28;20477;-72
2022/03/16 12:49:17;;;;;;;1.05;0.85;;;15.50;67.40;;;;;;5113835;28;20035;-72
2022/03/16 12:51:49;;;;;;;1.55;1.15;;;15.50;67.30;;;;;;5113702;28;20063;-72
2022/03/16 12:54:20;;;;;;;0.85;0.70;;;15.50;67.40;;;;;;5094284;28;20054;-72
2022/03/16 12:56:50;;;;;;;1.27;0.90;;;15.40;67.50;;;;;;5113545;28;20039;-72
2022/03/16 12:59:27;;;;;;;0.95;0.70;;;15.40;67.60;;;;;;5113489;28;20489;-72
2022/03/16 13:01:55;;;;;;;1.05;0.90;;;15.30;67.80;;;;;;5095392;28;20051;-73
2022/03/16 13:04:23;;;;;;;1.27;1.10;;;15.30;67.80;;;;;;5113415;28;20096;-73
2022/03/16 13:06:52;;;;;;;1.40;1.10;;;15.40;67.90;;;;;;5113469;28;20459;-73
2022/03/16 13:09:18;;;;;;;1.30;0.98;;;15.40;67.80;;;;;;5113923;28;20096;-73
2022/03/16 13:11:45;;;;;;;1.85;1.13;;;15.30;67.80;;;;;;5113286;28;20035;-73
2022/03/16 13:14:14;;;;;;;1.10;0.93;;;15.40;67.70;;;;;;5095730;28;20099;-74
2022/03/16 13:16:43;;;;;;;1.38;1.05;;;15.40;67.60;;;;;;5095005;28;20141;-74
2022/03/16 13:19:17;;;;;;;0.98;0.70;;;15.40;67.60;;;;;;5078373;28;20039;-74